Airport Name : Haiphong Catbi

Other Name : Haiphong Catbi

ICAO : VVCI

IATA : HPH

FAA :

Latitude : 20.819386

Longitude : 106.724989

Country : Vietnam

Local Date and Time : 19 Jul 2024 06:46

 

TAF (Terminal Aerodrome Forecast)

TAF VVCI 182300Z 1900/1924 11006KT 9999 SCT020 TEMPO 1900/1906 4000 TSRA BKN015 FEW027CB TEMPO 1920/1924 4000 TSRA BKN015 FEW027CB

 

METAR (METeorological Aerodrome Report)

VVCI 182330Z VRB02KT 9999 -RA FEW012 BKN016 27/26 Q1004 NOSIG

VVCI 182300Z VRB02KT 9999 -RA SCT015 BKN021 FEW025TCU 26/25 Q1004 TEMPO 4000 SHRA

VVCI 182230Z 26004KT 9999 -RA FEW013 BKN017 OVC035 26/25 Q1003 NOSIG

VVCI 182200Z 28004KT 240V320 9999 -RA SCT004 BKN015 26/25 Q1004 NOSIG

VVCI 182130Z 15012KT 120V180 6000 TSRA BKN006 FEW027CB 27/25 Q1003 TEMPO 4000 TSRA

VVCI 182100Z 08006KT 050V110 9999 -RA FEW014 SCT017 BKN036 26/25 Q1003 NOSIG

VVCI 182030Z 05005KT 020V080 9999 FEW007 BKN023 27/26 Q1003 NOSIG

VVCI 182000Z 05007KT 020V080 9999 FEW006 SCT019 BKN022 27/26 Q1003 NOSIG